createdAt,value
2017-06-19T00:00:10.109Z,18.80
2017-06-19T00:02:38.990Z,18.70
2017-06-19T00:05:07.873Z,18.70
2017-06-19T00:07:36.774Z,18.70
2017-06-19T00:10:05.671Z,18.60
2017-06-19T00:12:34.556Z,18.60
2017-06-19T00:15:03.450Z,18.60
2017-06-19T00:17:32.345Z,18.50
2017-06-19T00:20:01.240Z,18.50
2017-06-19T00:22:35.518Z,18.50
2017-06-19T00:25:04.402Z,18.40
2017-06-19T00:27:33.287Z,18.40
2017-06-19T00:30:02.944Z,18.40
2017-06-19T00:32:31.820Z,18.40
2017-06-19T00:35:01.474Z,18.30
2017-06-19T00:37:30.329Z,18.20
2017-06-19T00:39:59.218Z,18.20
2017-06-19T00:42:28.870Z,18.10
2017-06-19T00:44:57.758Z,18.10
2017-06-19T00:47:26.647Z,18.10
2017-06-19T00:49:55.529Z,18.00
2017-06-19T00:52:24.426Z,18.00
2017-06-19T00:54:53.314Z,18.00
2017-06-19T00:57:22.196Z,17.90
2017-06-19T00:59:51.082Z,17.90
2017-06-19T01:02:19.968Z,17.80
2017-06-19T01:04:48.819Z,17.90
2017-06-19T01:07:17.715Z,17.80
2017-06-19T01:09:46.602Z,17.80
2017-06-19T01:12:15.490Z,17.70
2017-06-19T01:14:44.372Z,17.60
2017-06-19T01:17:13.261Z,17.60
2017-06-19T01:19:42.149Z,17.50
2017-06-19T01:22:11.041Z,17.40
2017-06-19T01:24:39.929Z,17.50
2017-06-19T01:27:08.825Z,17.50
2017-06-19T01:29:37.715Z,17.40
2017-06-19T01:32:06.605Z,17.40
2017-06-19T01:34:35.500Z,17.40
2017-06-19T01:37:04.395Z,17.40
2017-06-19T01:39:33.286Z,17.30
2017-06-19T01:42:02.173Z,17.30
2017-06-19T01:44:31.065Z,17.20
2017-06-19T01:46:59.952Z,17.30
2017-06-19T01:49:28.837Z,17.20
2017-06-19T01:51:57.025Z,17.20
2017-06-19T01:54:25.913Z,17.20
2017-06-19T01:56:54.806Z,17.20
2017-06-19T01:59:23.696Z,17.10
2017-06-19T02:01:52.585Z,17.00
2017-06-19T02:04:21.475Z,17.00
2017-06-19T02:06:50.358Z,16.90
2017-06-19T02:09:19.248Z,16.90
2017-06-19T02:11:48.130Z,16.90
2017-06-19T02:14:17.012Z,16.90
2017-06-19T02:16:45.896Z,16.90
2017-06-19T02:19:14.746Z,16.80
2017-06-19T02:21:43.631Z,16.80
2017-06-19T02:24:12.479Z,16.80
2017-06-19T02:26:41.369Z,16.70
2017-06-19T02:29:10.259Z,16.80
2017-06-19T02:31:39.142Z,16.80
2017-06-19T02:34:08.147Z,16.80
2017-06-19T02:36:37.026Z,16.80
2017-06-19T02:39:05.218Z,16.70
2017-06-19T02:41:34.098Z,16.70
2017-06-19T02:44:02.985Z,16.60
2017-06-19T02:46:31.886Z,16.60
2017-06-19T02:49:00.769Z,16.50
2017-06-19T02:51:29.618Z,16.50
2017-06-19T02:53:58.497Z,16.50
2017-06-19T02:56:27.357Z,16.40
2017-06-19T02:58:56.254Z,16.40
2017-06-19T03:01:25.146Z,16.30
2017-06-19T03:03:54.030Z,16.30
2017-06-19T03:06:22.921Z,16.30
2017-06-19T03:08:51.816Z,16.30
2017-06-19T03:11:20.706Z,16.30
2017-06-19T03:13:49.591Z,16.30
2017-06-19T03:16:18.478Z,16.40
2017-06-19T03:18:47.375Z,16.30
2017-06-19T03:21:16.264Z,16.30
2017-06-19T03:23:45.114Z,16.30
2017-06-19T03:26:14.041Z,16.30
2017-06-19T03:28:42.937Z,16.20
2017-06-19T03:31:11.829Z,16.20
2017-06-19T03:33:40.708Z,16.20
2017-06-19T03:36:09.652Z,16.20
2017-06-19T03:38:38.649Z,16.20
2017-06-19T03:41:07.537Z,16.20
2017-06-19T03:43:36.432Z,16.20
2017-06-19T03:46:05.325Z,16.20
2017-06-19T03:48:34.217Z,16.20
2017-06-19T03:51:03.110Z,16.30
2017-06-19T03:53:31.958Z,16.30
2017-06-19T03:56:00.813Z,16.30
2017-06-19T03:58:29.710Z,16.30
2017-06-19T04:00:58.590Z,16.30
2017-06-19T04:03:27.561Z,16.30
2017-06-19T04:05:56.481Z,16.30
2017-06-19T04:08:25.370Z,16.30
2017-06-19T04:10:54.253Z,16.30
2017-06-19T04:13:23.237Z,16.30
2017-06-19T04:15:52.083Z,16.30
2017-06-19T04:18:20.975Z,16.30
2017-06-19T04:20:49.828Z,16.30
2017-06-19T04:23:18.805Z,16.30
2017-06-19T04:25:47.694Z,16.30
2017-06-19T04:28:16.592Z,16.30
2017-06-19T04:30:45.482Z,16.40
2017-06-19T04:33:14.371Z,16.50
2017-06-19T04:35:43.257Z,16.50
2017-06-19T04:38:12.153Z,16.60
2017-06-19T04:40:41.014Z,16.60
2017-06-19T04:43:09.900Z,16.60
2017-06-19T04:45:38.821Z,16.70
2017-06-19T04:48:07.717Z,16.80
2017-06-19T04:50:36.604Z,16.90
2017-06-19T04:53:05.449Z,17.00
2017-06-19T04:55:34.345Z,17.10
2017-06-19T04:58:03.233Z,17.10
2017-06-19T05:00:32.089Z,17.10
2017-06-19T05:03:00.954Z,17.10
2017-06-19T05:05:29.867Z,17.20
2017-06-19T05:07:58.729Z,17.30
2017-06-19T05:10:27.611Z,17.30
2017-06-19T05:12:56.495Z,17.40
2017-06-19T05:15:25.382Z,17.50
2017-06-19T05:17:54.273Z,17.50
2017-06-19T05:20:23.168Z,17.60
2017-06-19T05:22:52.062Z,17.60
2017-06-19T05:25:21.055Z,17.70
2017-06-19T05:27:49.937Z,17.60
2017-06-19T05:30:18.830Z,17.70
2017-06-19T05:32:47.717Z,17.70
2017-06-19T05:35:16.616Z,17.80
2017-06-19T05:37:45.477Z,17.90
2017-06-19T05:40:14.323Z,17.90
2017-06-19T05:42:43.230Z,18.00
2017-06-19T05:45:13.001Z,18.10
2017-06-19T05:47:43.196Z,18.10
2017-06-19T05:58:05.157Z,18.50
2017-06-19T06:03:14.090Z,18.60
2017-06-19T06:05:43.005Z,18.70
2017-06-19T06:08:12.857Z,18.70
2017-06-19T06:10:41.745Z,18.80
2017-06-19T06:13:11.401Z,19.00
2017-06-19T06:15:40.297Z,19.00
2017-06-19T06:18:09.190Z,19.10
2017-06-19T06:20:38.054Z,19.20
2017-06-19T06:23:06.952Z,19.20
2017-06-19T06:25:35.845Z,19.40
2017-06-19T06:28:04.728Z,19.40
2017-06-19T06:30:33.662Z,19.50
2017-06-19T06:33:02.548Z,19.60
2017-06-19T06:35:31.402Z,19.70
2017-06-19T06:38:00.284Z,19.80
2017-06-19T06:40:29.166Z,20.00
2017-06-19T06:42:57.862Z,20.10
2017-06-19T06:45:26.761Z,20.20
2017-06-19T06:47:55.645Z,20.30
2017-06-19T06:50:24.497Z,20.40
2017-06-19T06:52:53.376Z,20.50
2017-06-19T06:55:22.224Z,20.60
2017-06-19T06:57:51.075Z,20.70
2017-06-19T07:00:19.953Z,20.80
2017-06-19T07:02:48.837Z,21.00
2017-06-19T07:05:17.537Z,21.10
2017-06-19T07:07:46.426Z,21.20
2017-06-19T07:10:15.313Z,21.30
2017-06-19T07:12:44.213Z,21.50
2017-06-19T07:15:13.095Z,21.50
2017-06-19T07:17:41.977Z,21.60
2017-06-19T07:20:10.857Z,21.70
2017-06-19T07:22:39.746Z,21.80
2017-06-19T07:25:08.597Z,22.00
2017-06-19T07:27:37.501Z,22.10
2017-06-19T07:30:06.393Z,22.30
2017-06-19T07:32:35.285Z,22.50
2017-06-19T07:35:04.285Z,22.70
2017-06-19T07:37:33.170Z,22.80
2017-06-19T07:40:02.050Z,23.00
2017-06-19T07:42:30.936Z,23.20
2017-06-19T07:45:00.594Z,23.40
2017-06-19T07:47:29.496Z,23.30
2017-06-19T07:49:58.385Z,23.50
2017-06-19T07:52:27.251Z,23.70
2017-06-19T07:54:56.129Z,23.80
2017-06-19T07:57:25.025Z,24.00
2017-06-19T07:59:53.914Z,24.10
2017-06-19T08:02:22.803Z,24.10
2017-06-19T08:04:51.697Z,24.20
2017-06-19T08:07:20.588Z,24.40
2017-06-19T08:09:49.477Z,24.50
2017-06-19T08:12:18.361Z,24.60
2017-06-19T08:14:47.258Z,24.70
2017-06-19T08:17:16.154Z,24.80
2017-06-19T08:19:45.049Z,24.90
2017-06-19T08:22:13.937Z,25.00
2017-06-19T08:24:42.830Z,25.20
2017-06-19T08:27:11.730Z,25.30
2017-06-19T08:29:40.591Z,25.40
2017-06-19T08:32:10.387Z,25.70
2017-06-19T08:34:39.317Z,25.70
2017-06-19T08:37:08.214Z,25.80
2017-06-19T08:39:37.103Z,26.00
2017-06-19T08:42:05.995Z,26.10
2017-06-19T08:44:34.889Z,26.30
2017-06-19T08:47:03.513Z,26.50
2017-06-19T08:49:32.906Z,26.80
2017-06-19T08:52:02.299Z,26.90
2017-06-19T08:54:30.920Z,26.90
2017-06-19T08:56:59.549Z,27.10
2017-06-19T08:59:28.169Z,27.20
2017-06-19T09:01:57.569Z,27.30
2017-06-19T09:04:26.206Z,27.20
2017-06-19T09:06:54.795Z,27.40
2017-06-19T09:09:23.381Z,27.50
2017-06-19T09:11:52.009Z,27.60
2017-06-19T09:14:21.409Z,27.70
2017-06-19T09:16:50.065Z,27.70
2017-06-19T09:19:18.727Z,27.70
2017-06-19T09:21:47.354Z,27.70
2017-06-19T09:24:15.979Z,27.90
2017-06-19T09:26:44.621Z,28.20
2017-06-19T09:29:13.206Z,28.40
2017-06-19T09:31:41.828Z,28.40
2017-06-19T09:34:10.459Z,28.60
2017-06-19T09:36:39.085Z,28.70
2017-06-19T09:39:07.701Z,28.80
2017-06-19T09:41:36.325Z,28.90
2017-06-19T09:44:04.950Z,29.00
2017-06-19T09:46:33.577Z,29.10
2017-06-19T09:49:02.203Z,29.20
2017-06-19T09:51:31.631Z,29.40
2017-06-19T09:54:00.254Z,29.30
2017-06-19T09:56:28.854Z,29.50
2017-06-19T09:58:57.483Z,29.70
2017-06-19T10:01:26.112Z,29.80
2017-06-19T10:03:54.745Z,29.80
2017-06-19T10:06:24.151Z,30.00
2017-06-19T10:08:52.780Z,30.00
2017-06-19T10:11:21.405Z,30.00
2017-06-19T10:13:50.025Z,30.10
2017-06-19T10:16:19.258Z,30.10
2017-06-19T10:18:48.503Z,30.40
2017-06-19T10:21:17.133Z,30.40
2017-06-19T10:23:45.766Z,30.50
2017-06-19T10:26:15.168Z,30.40
2017-06-19T10:28:44.553Z,30.60
2017-06-19T10:31:13.169Z,30.60
2017-06-19T10:33:41.792Z,30.40
2017-06-19T10:36:10.413Z,30.40
2017-06-19T10:38:39.041Z,30.70
2017-06-19T10:41:07.667Z,30.80
2017-06-19T10:43:36.293Z,30.90
2017-06-19T10:46:04.914Z,31.00
2017-06-19T10:48:33.533Z,31.00
2017-06-19T10:51:02.158Z,31.10
2017-06-19T10:53:30.786Z,31.30
2017-06-19T10:55:59.421Z,31.40
2017-06-19T10:58:28.006Z,31.40
2017-06-19T11:00:57.367Z,31.50
2017-06-19T11:03:26.001Z,31.50
2017-06-19T11:05:54.641Z,31.60
2017-06-19T11:08:23.269Z,31.80
2017-06-19T11:10:51.864Z,31.70
2017-06-19T11:13:20.493Z,31.60
2017-06-19T11:15:49.084Z,31.70
2017-06-19T11:18:17.717Z,31.40
2017-06-19T11:20:46.337Z,31.30
2017-06-19T11:23:14.966Z,31.50
2017-06-19T11:25:43.590Z,31.60
2017-06-19T11:28:12.209Z,31.70
2017-06-19T11:30:40.801Z,31.80
2017-06-19T11:33:09.392Z,31.80
2017-06-19T11:35:38.017Z,32.00
2017-06-19T11:38:06.604Z,32.00
2017-06-19T11:40:35.234Z,32.10
2017-06-19T11:43:03.854Z,32.10
2017-06-19T11:45:33.217Z,31.90
2017-06-19T11:48:01.852Z,31.90
2017-06-19T11:50:30.489Z,32.00
2017-06-19T11:52:59.121Z,32.10
2017-06-19T11:55:28.502Z,32.40
2017-06-19T11:57:57.132Z,32.40
2017-06-19T12:00:25.753Z,32.60
2017-06-19T12:02:54.366Z,32.70
2017-06-19T12:05:23.749Z,32.80
2017-06-19T12:07:52.333Z,32.80
2017-06-19T12:10:20.953Z,32.70
2017-06-19T12:12:50.342Z,32.60
2017-06-19T12:15:18.923Z,32.60
2017-06-19T12:17:47.503Z,32.60
2017-06-19T12:20:16.118Z,32.60
2017-06-19T12:22:44.737Z,32.70
2017-06-19T12:25:13.358Z,32.80
2017-06-19T12:27:41.981Z,32.70
2017-06-19T12:30:10.601Z,32.80
2017-06-19T12:32:39.235Z,32.90
2017-06-19T12:35:08.618Z,33.00
2017-06-19T12:37:37.246Z,32.90
2017-06-19T12:40:05.879Z,32.80
2017-06-19T12:42:34.574Z,32.70
2017-06-19T12:45:03.193Z,33.00
2017-06-19T12:47:31.817Z,33.20
2017-06-19T12:50:00.454Z,33.00
2017-06-19T12:52:29.843Z,33.30
2017-06-19T12:54:58.465Z,33.30
2017-06-19T12:57:27.094Z,33.30
2017-06-19T12:59:55.718Z,33.40
2017-06-19T13:02:25.106Z,33.40
2017-06-19T13:04:53.689Z,33.40
2017-06-19T13:07:22.305Z,33.50
2017-06-19T13:09:50.936Z,33.50
2017-06-19T13:12:19.562Z,33.70
2017-06-19T13:14:48.191Z,33.80
2017-06-19T13:17:16.813Z,33.90
2017-06-19T13:19:45.403Z,33.90
2017-06-19T13:22:14.801Z,33.80
2017-06-19T13:24:43.420Z,33.80
2017-06-19T13:27:12.044Z,33.80
2017-06-19T13:29:40.669Z,33.90
2017-06-19T13:32:09.294Z,34.00
2017-06-19T13:34:37.914Z,34.00
2017-06-19T13:37:06.536Z,33.80
2017-06-19T13:39:35.156Z,33.80
2017-06-19T13:42:03.773Z,34.00
2017-06-19T13:44:32.417Z,34.00
2017-06-19T13:47:01.041Z,33.90
2017-06-19T13:49:30.475Z,33.90
2017-06-19T13:51:59.166Z,34.00
2017-06-19T13:54:28.578Z,34.30
2017-06-19T13:56:57.206Z,34.30
2017-06-19T13:59:29.568Z,34.40
2017-06-19T14:01:58.505Z,34.30
2017-06-19T14:04:27.181Z,34.10
2017-06-19T14:06:55.813Z,34.30
2017-06-19T14:09:24.397Z,34.50
2017-06-19T14:11:53.026Z,34.60
2017-06-19T14:14:21.645Z,34.50
2017-06-19T14:16:51.046Z,34.50
2017-06-19T14:19:20.410Z,34.30
2017-06-19T14:21:49.038Z,34.30
2017-06-19T14:24:18.412Z,34.40
2017-06-19T14:26:47.045Z,34.40
2017-06-19T14:29:15.629Z,34.60
2017-06-19T14:31:44.214Z,34.50
2017-06-19T14:34:12.801Z,34.40
2017-06-19T14:36:41.382Z,34.30
2017-06-19T14:39:10.003Z,34.10
2017-06-19T14:41:38.625Z,34.10
2017-06-19T14:44:07.253Z,34.10
2017-06-19T14:46:35.862Z,34.20
2017-06-19T14:49:04.490Z,34.20
2017-06-19T14:51:33.847Z,34.00
2017-06-19T14:54:02.474Z,34.00
2017-06-19T14:56:31.101Z,34.00
2017-06-19T14:58:59.717Z,33.80
2017-06-19T15:01:28.347Z,33.90
2017-06-19T15:03:56.982Z,34.00
2017-06-19T15:06:25.622Z,34.00
2017-06-19T15:08:54.247Z,33.90
2017-06-19T15:11:22.888Z,33.70
2017-06-19T15:13:51.470Z,33.60
2017-06-19T15:16:20.758Z,33.60
2017-06-19T15:18:50.150Z,33.40
2017-06-19T15:21:34.513Z,33.30
2017-06-19T15:24:03.871Z,33.30
2017-06-19T15:26:32.568Z,33.30
2017-06-19T15:29:01.193Z,33.30
2017-06-19T15:31:30.585Z,33.30
2017-06-19T15:33:59.210Z,33.30
2017-06-19T15:36:27.826Z,33.30
2017-06-19T15:38:56.457Z,33.30
2017-06-19T15:41:25.096Z,33.10
2017-06-19T15:43:53.718Z,33.10
2017-06-19T15:46:23.097Z,33.10
2017-06-19T15:48:51.717Z,33.10
2017-06-19T15:51:21.064Z,32.90
2017-06-19T15:53:49.678Z,32.90
2017-06-19T15:56:18.301Z,32.90
2017-06-19T15:58:46.922Z,32.80
2017-06-19T16:01:15.550Z,32.80
2017-06-19T16:03:44.959Z,32.70
2017-06-19T16:06:14.350Z,32.70
2017-06-19T16:08:42.971Z,32.60
2017-06-19T16:11:11.593Z,32.60
2017-06-19T16:13:40.226Z,32.40
2017-06-19T16:16:09.622Z,32.30
2017-06-19T16:18:39.022Z,32.30
2017-06-19T16:21:08.414Z,32.30
2017-06-19T16:23:38.033Z,32.30
2017-06-19T16:26:07.421Z,32.10
2017-06-19T16:28:36.042Z,32.00
2017-06-19T16:31:04.671Z,32.00
2017-06-19T16:33:33.295Z,32.00
2017-06-19T16:36:02.686Z,31.80
2017-06-19T16:38:31.310Z,31.90
2017-06-19T16:40:59.934Z,31.80
2017-06-19T16:43:28.562Z,31.70
2017-06-19T16:45:57.953Z,31.60
2017-06-19T16:48:27.333Z,31.60
2017-06-19T16:50:55.953Z,31.60
2017-06-19T16:53:24.545Z,31.60
2017-06-19T16:55:53.165Z,31.50
2017-06-19T16:58:21.496Z,31.40
2017-06-19T17:00:50.885Z,31.30
2017-06-19T17:03:19.501Z,31.30
2017-06-19T17:05:48.122Z,31.20
2017-06-19T17:08:16.764Z,31.20
2017-06-19T17:10:45.391Z,31.20
2017-06-19T17:13:14.021Z,31.20
2017-06-19T17:15:43.426Z,31.10
2017-06-19T17:18:12.821Z,31.00
2017-06-19T17:20:41.414Z,31.00
2017-06-19T17:23:10.783Z,31.00
2017-06-19T17:25:39.421Z,30.90
2017-06-19T17:28:08.045Z,30.90
2017-06-19T17:30:36.666Z,30.80
2017-06-19T17:33:05.294Z,30.80
2017-06-19T17:35:33.913Z,30.80
2017-06-19T17:38:02.530Z,30.70
2017-06-19T17:40:31.173Z,30.70
2017-06-19T17:42:59.793Z,30.70
2017-06-19T17:45:28.410Z,30.60
2017-06-19T17:47:57.031Z,30.50
2017-06-19T17:50:25.661Z,30.50
2017-06-19T17:52:55.046Z,30.30
2017-06-19T17:55:23.670Z,30.30
2017-06-19T17:57:52.295Z,30.20
2017-06-19T18:00:21.021Z,30.20
2017-06-19T18:02:49.649Z,30.10
2017-06-19T18:05:18.235Z,30.10
2017-06-19T18:07:46.522Z,30.00
2017-06-19T18:10:15.157Z,30.00
2017-06-19T18:12:44.665Z,29.80
2017-06-19T18:15:13.295Z,29.80
2017-06-19T18:17:41.921Z,29.80
2017-06-19T18:20:10.537Z,29.70
2017-06-19T18:22:39.165Z,29.60
2017-06-19T18:25:07.794Z,29.60
2017-06-19T18:27:36.423Z,29.50
2017-06-19T18:30:05.123Z,29.50
2017-06-19T18:32:33.750Z,29.40
2017-06-19T18:35:03.958Z,29.30
2017-06-19T18:37:33.321Z,29.10
2017-06-19T18:40:01.904Z,29.10
2017-06-19T18:42:30.490Z,29.10
2017-06-19T18:44:59.122Z,29.00
2017-06-19T18:47:28.513Z,28.90
2017-06-19T18:49:57.137Z,28.90
2017-06-19T18:52:25.777Z,28.90
2017-06-19T18:54:54.361Z,28.80
2017-06-19T18:57:22.987Z,28.80
2017-06-19T18:59:51.609Z,28.70
2017-06-19T19:02:20.239Z,28.70
2017-06-19T19:04:49.629Z,28.60
2017-06-19T19:07:18.217Z,28.60
2017-06-19T19:09:47.570Z,28.50
2017-06-19T19:12:16.158Z,28.50
2017-06-19T19:14:44.743Z,28.50
2017-06-19T19:17:13.499Z,28.50
2017-06-19T19:19:42.125Z,28.40
2017-06-19T19:22:10.765Z,28.30
2017-06-19T19:24:39.407Z,28.20
2017-06-19T19:27:08.034Z,28.20
2017-06-19T19:29:37.421Z,28.00
2017-06-19T19:32:05.856Z,28.00
2017-06-19T19:34:34.489Z,27.90
2017-06-19T19:37:03.877Z,27.80
2017-06-19T19:39:32.509Z,27.80
2017-06-19T19:42:01.094Z,27.70
2017-06-19T19:44:29.730Z,27.60
2017-06-19T19:46:58.354Z,27.50
2017-06-19T19:49:26.986Z,27.40
2017-06-19T19:51:55.681Z,27.30
2017-06-19T19:54:24.309Z,27.30
2017-06-19T19:56:53.705Z,27.10
2017-06-19T19:59:23.062Z,27.00
2017-06-19T20:01:51.686Z,27.00
2017-06-19T20:04:21.334Z,26.90
2017-06-19T20:06:49.962Z,26.80
2017-06-19T20:09:18.578Z,26.80
2017-06-19T20:11:47.961Z,26.70
2017-06-19T20:14:16.597Z,26.70
2017-06-19T20:16:45.218Z,26.60
2017-06-19T20:19:14.142Z,26.50
2017-06-19T20:21:43.533Z,26.40
2017-06-19T20:24:13.189Z,26.40
2017-06-19T20:26:41.834Z,26.40
2017-06-19T20:29:11.243Z,26.20
2017-06-19T20:31:40.638Z,26.20
2017-06-19T20:34:09.253Z,26.10
2017-06-19T20:36:37.881Z,26.10
2017-06-19T20:39:06.510Z,26.10
2017-06-19T20:41:36.605Z,25.90
2017-06-19T20:44:05.221Z,25.90
2017-06-19T20:46:33.857Z,25.90
2017-06-19T20:49:02.478Z,25.80
2017-06-19T20:51:31.864Z,25.70
2017-06-19T20:54:00.491Z,25.70
2017-06-19T20:56:29.111Z,25.60
2017-06-19T20:58:57.742Z,25.60
2017-06-19T21:01:27.125Z,25.40
2017-06-19T21:03:55.745Z,25.50
2017-06-19T21:06:24.371Z,25.40
2017-06-19T21:08:52.962Z,25.30
2017-06-19T21:11:21.591Z,25.20
2017-06-19T21:13:50.218Z,25.10
2017-06-19T21:16:18.832Z,25.10
2017-06-19T21:18:47.427Z,25.00
2017-06-19T21:21:17.765Z,24.80
2017-06-19T21:23:47.476Z,24.80
2017-06-19T21:26:16.871Z,24.70
2017-06-19T21:28:45.460Z,24.60
2017-06-19T21:31:14.849Z,24.60
2017-06-19T21:33:43.475Z,24.60
2017-06-19T21:36:12.114Z,24.50
2017-06-19T21:38:41.614Z,24.40
2017-06-19T21:41:10.332Z,24.40
2017-06-19T21:43:39.221Z,24.30
2017-06-19T21:46:08.604Z,24.20
2017-06-19T21:48:37.494Z,24.20
2017-06-19T21:51:06.373Z,24.10
2017-06-19T21:53:35.003Z,24.10
2017-06-19T21:56:03.885Z,24.10
2017-06-19T21:58:33.302Z,24.00
2017-06-19T22:01:02.185Z,24.00
2017-06-19T22:03:31.581Z,23.90
2017-06-19T22:06:00.972Z,23.90
2017-06-19T22:08:29.830Z,23.90
2017-06-19T22:10:58.722Z,23.90
2017-06-19T22:13:27.613Z,23.80
2017-06-19T22:15:56.586Z,23.80
2017-06-19T22:18:26.247Z,23.70
2017-06-19T22:21:14.830Z,23.60
2017-06-19T22:23:44.018Z,23.60
2017-06-19T22:26:12.910Z,23.60
2017-06-19T22:28:41.864Z,23.60
2017-06-19T22:31:11.713Z,23.50
2017-06-19T22:33:40.605Z,23.50
2017-06-19T22:36:09.457Z,23.50
2017-06-19T22:38:38.308Z,23.40
2017-06-19T22:41:07.193Z,23.40
2017-06-19T22:43:36.085Z,23.30
2017-06-19T22:48:44.404Z,23.20
2017-06-19T22:51:14.899Z,23.10
2017-06-19T22:53:44.129Z,23.00
2017-06-19T22:56:13.029Z,22.90
2017-06-19T22:58:41.918Z,22.90
2017-06-19T23:01:10.810Z,22.90
2017-06-19T23:03:39.702Z,22.90
2017-06-19T23:06:08.559Z,22.90
2017-06-19T23:08:37.451Z,22.80
2017-06-19T23:11:06.336Z,22.80
2017-06-19T23:13:35.227Z,22.70
2017-06-19T23:16:04.119Z,22.70
2017-06-19T23:18:33.037Z,22.70
2017-06-19T23:21:01.921Z,22.60
2017-06-19T23:23:30.809Z,22.60
2017-06-19T23:25:59.696Z,22.60
2017-06-19T23:28:28.589Z,22.50
2017-06-19T23:30:57.482Z,22.50
2017-06-19T23:33:26.333Z,22.30
2017-06-19T23:35:55.982Z,22.20
2017-06-19T23:38:24.870Z,22.20
2017-06-19T23:40:54.526Z,22.10
2017-06-19T23:43:23.417Z,22.10
2017-06-19T23:45:52.305Z,22.00
2017-06-19T23:48:21.193Z,22.00
2017-06-19T23:50:50.077Z,22.00
2017-06-19T23:53:18.964Z,22.00
2017-06-19T23:55:47.857Z,21.90
2017-06-19T23:58:16.769Z,21.90
